Time;durP1;ratioP1;P1;durP2;ratioP2;P2;SDS_P1;SDS_P2;PMS_P1;PMS_P2;Temp;Humidity;BMP_temperature;BMP_pressure;BME280_temperature;BME280_humidity;BME280_pressure;Samples;Min_cycle;Max_cycle;Signal;HPM_P1;HPM_P2
2022/06/09 00:01:15;;;;;;;;;;;;;;;13.52;100.00;-25447.22;5074024;28;20339;-83
2022/06/09 00:03:55;;;;;;;;;;;;;;;13.46;100.00;-25445.47;5052716;28;19983;-76
2022/06/09 00:06:21;;;;;;;;;;;;;;;13.48;100.00;-25445.91;5058027;28;20023;-75
2022/06/09 00:08:48;;;;;;;;;;;;;;;13.49;100.00;-25446.34;5074888;28;19960;-76
2022/06/09 00:11:16;;;;;;;;;;;;;;;13.43;100.00;-25444.59;5075057;28;19966;-76
2022/06/09 00:13:45;;;;;;;;;;;;;;;13.40;100.00;-25443.72;5053225;28;19925;-76
2022/06/09 00:16:11;;;;;;;;;;;;;;;13.35;100.00;-25442.28;5055098;28;19916;-79
2022/06/09 00:18:37;;;;;;;;;;;;;;;13.36;100.00;-25442.72;5053493;28;20347;-76
2022/06/09 00:21:03;;;;;;;;;;;;;;;13.35;100.00;-25442.28;5054698;28;20424;-77
2022/06/09 00:23:29;;;;;;;;;;;;;;;13.37;100.00;-25443.00;5064000;28;19921;-78
2022/06/09 00:25:54;;;;;;;;;;;;;;;13.42;100.00;-25444.31;5074677;28;19981;-78
2022/06/09 00:28:20;;;;;;;;;;;;;;;13.46;100.00;-25445.47;5076489;28;19917;-83
2022/06/09 00:30:46;;;;;;;;;;;;;;;13.55;100.00;-25447.94;5078522;28;19916;-83
2022/06/09 00:33:12;;;;;;;;;;;;;;;13.59;100.00;-25449.13;5071155;28;19921;-85
2022/06/09 00:35:37;;;;;;;;;;;;;;;13.63;100.00;-25450.28;5075448;28;19927;-85
2022/06/09 00:38:02;;;;;;;;;;;;;;;13.69;100.00;-25452.03;5078184;28;19920;-86
2022/06/09 00:40:28;;;;;;;;;;;;;;;13.73;100.00;-25453.22;5077789;28;20324;-82
2022/06/09 00:42:53;;;;;;;;;;;;;;;13.75;100.00;-25453.66;5074989;28;20038;-84
2022/06/09 00:45:27;;;;;;;;;;;;;;;13.73;100.00;-25453.22;5077062;28;19916;-83
2022/06/09 00:47:56;;;;;;;;;;;;;;;13.68;100.00;-25451.59;5062801;28;20652;-81
2022/06/09 00:50:24;;;;;;;;;;;;;;;13.61;100.00;-25449.84;5062421;28;19921;-78
2022/06/09 00:52:54;;;;;;;;;;;;;;;13.51;100.00;-25446.78;5066828;28;19928;-76
2022/06/09 00:55:21;;;;;;;;;;;;;;;13.48;100.00;-25445.91;5061780;28;20015;-77
2022/06/09 00:57:52;;;;;;;;;;;;;;;13.42;100.00;-25444.47;5075426;28;19917;-80
2022/06/09 01:00:19;;;;;;;;;;;;;;;13.38;100.00;-25443.16;5076208;28;19917;-76
2022/06/09 01:02:48;;;;;;;;;;;;;;;13.35;100.00;-25442.41;5072593;28;20027;-76
2022/06/09 01:05:15;;;;;;;;;;;;;;;13.31;100.00;-25441.22;5073480;28;19916;-82
2022/06/09 01:07:44;;;;;;;;;;;;;;;13.32;100.00;-25441.38;5073623;28;19969;-78
2022/06/09 01:10:10;;;;;;;;;;;;;;;13.31;100.00;-25441.09;5072862;28;20016;-76
2022/06/09 01:12:37;;;;;;;;;;;;;;;13.33;100.00;-25441.69;5060754;28;19921;-77
2022/06/09 01:15:13;;;;;;;;;;;;;;;13.30;100.00;-25440.94;5053949;28;19978;-76
2022/06/09 01:17:55;;;;;;;;;;;;;;;13.26;100.00;-25439.91;5052861;28;20027;-77
2022/06/09 01:20:28;;;;;;;;;;;;;;;13.25;100.00;-25439.63;5052861;28;19928;-77
2022/06/09 01:22:57;;;;;;;;;;;;;;;13.20;100.00;-25438.16;5068489;28;19923;-77
2022/06/09 01:25:41;;;;;;;;;;;;;;;13.21;100.00;-25438.31;5066037;28;20357;-77
2022/06/09 01:28:25;;;;;;;;;;;;;;;13.19;100.00;-25437.88;5072106;28;19994;-77
2022/06/09 01:30:59;;;;;;;;;;;;;;;13.17;100.00;-25437.28;5074086;28;19922;-77
2022/06/09 01:33:36;;;;;;;;;;;;;;;13.14;100.00;-25436.28;5066070;28;19973;-77
2022/06/09 01:36:11;;;;;;;;;;;;;;;13.11;100.00;-25435.53;5053855;28;20357;-77
2022/06/09 01:38:46;;;;;;;;;;;;;;;13.09;100.00;-25434.97;5059850;28;20289;-81
2022/06/09 01:41:15;;;;;;;;;;;;;;;13.08;100.00;-25434.81;5055934;28;19921;-83
2022/06/09 01:43:43;;;;;;;;;;;;;;;13.08;100.00;-25434.66;5060845;28;19920;-83
2022/06/09 01:46:30;;;;;;;;;;;;;;;13.07;100.00;-25434.38;5072121;28;19920;-82
2022/06/09 01:48:57;;;;;;;;;;;;;;;13.06;100.00;-25434.22;5075164;28;19917;-82
2022/06/09 01:51:23;;;;;;;;;;;;;;;13.08;100.00;-25434.66;5063095;28;19931;-81
2022/06/09 01:53:51;;;;;;;;;;;;;;;13.10;100.00;-25435.25;5062490;28;19921;-82
2022/06/09 01:56:20;;;;;;;;;;;;;;;13.07;100.00;-25434.53;5057192;28;20407;-78
2022/06/09 01:58:49;;;;;;;;;;;;;;;13.11;100.00;-25435.53;5074080;28;19922;-83
2022/06/09 02:01:17;;;;;;;;;;;;;;;13.18;100.00;-25437.59;5074197;28;19917;-80
2022/06/09 02:03:44;;;;;;;;;;;;;;;13.28;100.00;-25440.34;5064037;28;19932;-86
2022/06/09 02:06:10;;;;;;;;;;;;;;;13.39;100.00;-25443.59;5071603;28;20300;-83
2022/06/09 02:08:36;;;;;;;;;;;;;;;13.47;100.00;-25445.78;5074785;28;19917;-83
2022/06/09 02:11:06;;;;;;;;;;;;;;;13.49;100.00;-25446.22;5074055;28;19920;-82
2022/06/09 02:13:41;;;;;;;;;;;;;;;13.48;100.00;-25446.06;5054805;28;19936;-81
2022/06/09 02:16:08;;;;;;;;;;;;;;;13.50;100.00;-25446.66;5055635;28;19916;-84
2022/06/09 02:18:38;;;;;;;;;;;;;;;13.54;100.00;-25447.81;5054489;28;19917;-75
2022/06/09 02:21:09;;;;;;;;;;;;;;;13.54;100.00;-25447.66;5048354;28;20011;-83
2022/06/09 02:23:36;;;;;;;;;;;;;;;13.57;100.00;-25448.53;5065001;28;19921;-84
2022/06/09 02:26:03;;;;;;;;;;;;;;;13.55;100.00;-25447.94;5052993;28;20008;-80
2022/06/09 02:28:29;;;;;;;;;;;;;;;13.54;100.00;-25447.81;5073998;28;19999;-83
2022/06/09 02:30:54;;;;;;;;;;;;;;;13.55;100.00;-25448.09;5074781;28;19974;-83
2022/06/09 02:33:20;;;;;;;;;;;;;;;13.53;100.00;-25447.53;5049342;28;19936;-79
2022/06/09 02:35:46;;;;;;;;;;;;;;;13.54;100.00;-25447.81;5047767;28;19924;-78
2022/06/09 02:38:11;;;;;;;;;;;;;;;13.56;100.00;-25448.25;5049071;28;19928;-75
2022/06/09 02:40:36;;;;;;;;;;;;;;;13.55;100.00;-25447.94;5048837;28;20282;-75
2022/06/09 02:43:06;;;;;;;;;;;;;;;13.54;100.00;-25447.81;5048821;28;19925;-83
2022/06/09 02:45:33;;;;;;;;;;;;;;;13.51;100.00;-25446.94;5048502;28;19917;-76
2022/06/09 02:47:58;;;;;;;;;;;;;;;13.53;100.00;-25447.38;5057571;28;19920;-80
2022/06/09 02:50:23;;;;;;;;;;;;;;;13.52;100.00;-25447.09;5071573;28;19916;-76
2022/06/09 02:52:50;;;;;;;;;;;;;;;13.51;100.00;-25446.78;5042868;28;20348;-77
2022/06/09 02:55:15;;;;;;;;;;;;;;;13.51;100.00;-25446.78;5050475;28;19928;-80
2022/06/09 02:57:40;;;;;;;;;;;;;;;13.48;100.00;-25446.06;5070391;28;19916;-76
2022/06/09 03:00:08;;;;;;;;;;;;;;;13.46;100.00;-25445.47;5053817;28;20284;-76
2022/06/09 03:02:33;;;;;;;;;;;;;;;13.50;100.00;-25446.50;5070665;28;20292;-76
2022/06/09 03:04:59;;;;;;;;;;;;;;;13.54;100.00;-25447.81;5072113;28;19916;-76
2022/06/09 03:07:25;;;;;;;;;;;;;;;13.56;100.00;-25448.25;5054242;28;19924;-77
2022/06/09 03:09:51;;;;;;;;;;;;;;;13.57;100.00;-25448.53;5054169;28;19928;-78
2022/06/09 03:12:16;;;;;;;;;;;;;;;13.57;100.00;-25448.69;5062277;28;19920;-80
2022/06/09 03:14:45;;;;;;;;;;;;;;;13.57;100.00;-25448.69;5051982;28;20300;-80
2022/06/09 03:17:10;;;;;;;;;;;;;;;13.59;100.00;-25449.28;5064172;28;19921;-76
2022/06/09 03:19:36;;;;;;;;;;;;;;;13.61;100.00;-25449.72;5072167;28;20375;-80
2022/06/09 03:22:02;;;;;;;;;;;;;;;13.62;100.00;-25450.16;5072467;28;19920;-82
2022/06/09 03:24:29;;;;;;;;;;;;;;;13.62;100.00;-25450.00;5072106;28;19970;-80
2022/06/09 03:26:55;;;;;;;;;;;;;;;13.65;100.00;-25451.03;5059730;28;19983;-84
2022/06/09 03:29:20;;;;;;;;;;;;;;;13.69;100.00;-25452.03;5053246;28;19917;-77
2022/06/09 03:31:46;;;;;;;;;;;;;;;13.76;100.00;-25453.94;5045776;28;20465;-83
2022/06/09 03:34:14;;;;;;;;;;;;;;;13.80;100.00;-25455.09;5052765;28;19925;-85
2022/06/09 03:36:39;;;;;;;;;;;;;;;13.79;100.00;-25454.81;5064854;28;19928;-84
2022/06/09 03:39:04;;;;;;;;;;;;;;;13.79;100.00;-25454.97;5064025;28;19921;-86
2022/06/09 03:41:30;;;;;;;;;;;;;;;13.95;100.00;-25459.47;5073639;28;19916;-83
2022/06/09 03:43:58;;;;;;;;;;;;;;;13.92;100.00;-25458.59;5064078;28;20412;-80
2022/06/09 03:46:23;;;;;;;;;;;;;;;14.08;100.00;-25463.13;5059000;28;19927;-80
2022/06/09 03:48:49;;;;;;;;;;;;;;;14.16;100.00;-25465.47;5060920;28;19924;-85
2022/06/09 03:51:14;;;;;;;;;;;;;;;14.18;100.00;-25465.91;5071812;28;19924;-84
2022/06/09 03:53:40;;;;;;;;;;;;;;;14.31;100.00;-25469.53;5072636;28;19923;-85
2022/06/09 03:56:16;;;;;;;;;;;;;;;14.23;100.00;-25467.22;5070207;28;20003;-87
2022/06/09 03:58:42;;;;;;;;;;;;;;;14.56;100.00;-25476.69;5074085;28;19920;-85
2022/06/09 04:01:09;;;;;;;;;;;;;;;14.98;100.00;-25488.47;5075291;28;19916;-78
2022/06/09 04:03:41;;;;;;;;;;;;;;;14.97;100.00;-25488.19;5059327;28;19999;-80
2022/06/09 04:06:14;;;;;;;;;;;;;;;15.54;100.00;-25504.34;5052292;28;19921;-82
2022/06/09 04:08:39;;;;;;;;;;;;;;;16.18;100.00;-25522.38;5051771;28;19917;-77
2022/06/09 04:11:04;;;;;;;;;;;;;;;16.58;100.00;-25533.69;5052228;28;20061;-76
2022/06/09 04:13:30;;;;;;;;;;;;;;;16.57;100.00;-25533.53;5049184;28;19921;-78
2022/06/09 04:15:55;;;;;;;;;;;;;;;16.72;100.00;-25537.59;5056213;28;19921;-80
2022/06/09 04:18:21;;;;;;;;;;;;;;;16.47;100.00;-25530.78;5067303;28;20398;-83
2022/06/09 04:20:46;;;;;;;;;;;;;;;16.02;100.00;-25517.88;5067883;28;20293;-83
2022/06/09 04:23:11;;;;;;;;;;;;;;;15.23;100.00;-25495.63;5071534;28;19921;-79
2022/06/09 04:25:38;;;;;;;;;;;;;;;14.91;100.00;-25486.59;5071082;28;19962;-77
2022/06/09 04:28:03;;;;;;;;;;;;;;;14.82;100.00;-25483.97;5068172;28;19921;-84
2022/06/09 04:30:49;;;;;;;;;;;;;;;14.74;100.00;-25481.63;5070436;28;19942;-81
2022/06/09 04:33:16;;;;;;;;;;;;;;;14.65;100.00;-25479.31;5071534;28;19956;-76
2022/06/09 04:35:41;;;;;;;;;;;;;;;14.54;100.00;-25476.25;5073092;28;19921;-82
2022/06/09 04:38:08;;;;;;;;;;;;;;;14.59;100.00;-25477.41;5055456;28;19925;-85
2022/06/09 04:40:35;;;;;;;;;;;;;;;14.62;100.00;-25478.44;5072985;28;19927;-88
2022/06/09 04:43:01;;;;;;;;;;;;;;;14.66;100.00;-25479.44;5070421;28;20412;-78
2022/06/09 04:45:26;;;;;;;;;;;;;;;14.66;100.00;-25479.59;5063789;28;20008;-78
2022/06/09 04:47:51;;;;;;;;;;;;;;;14.65;100.00;-25479.31;5049692;28;19921;-82
2022/06/09 04:50:18;;;;;;;;;;;;;;;14.59;100.00;-25477.56;5052129;28;19921;-77
2022/06/09 04:52:51;;;;;;;;;;;;;;;14.60;100.00;-25477.69;5067571;28;19916;-85
2022/06/09 04:55:16;;;;;;;;;;;;;;;14.59;100.00;-25477.56;5074405;28;19940;-81
2022/06/09 04:57:42;;;;;;;;;;;;;;;14.46;100.00;-25473.75;5059977;28;19921;-82
2022/06/09 05:00:08;;;;;;;;;;;;;;;14.48;100.00;-25474.34;5054545;28;19920;-80
2022/06/09 05:02:33;;;;;;;;;;;;;;;14.34;100.00;-25470.56;5054110;28;19917;-80
2022/06/09 05:04:58;;;;;;;;;;;;;;;14.23;100.00;-25467.34;5054959;28;19916;-79
2022/06/09 05:07:25;;;;;;;;;;;;;;;14.24;100.00;-25467.50;5071494;28;19921;-78
2022/06/09 05:09:50;;;;;;;;;;;;;;;14.15;100.00;-25465.03;5074889;28;19974;-79
2022/06/09 05:12:15;;;;;;;;;;;;;;;14.12;100.00;-25464.16;5065237;28;19917;-82
2022/06/09 05:14:41;;;;;;;;;;;;;;;14.07;100.00;-25462.84;5055599;28;19932;-82
2022/06/09 05:17:06;;;;;;;;;;;;;;;14.17;100.00;-25465.59;5053995;28;19931;-80
2022/06/09 05:19:31;;;;;;;;;;;;;;;14.02;100.00;-25461.38;5054091;28;19931;-84
2022/06/09 05:21:57;;;;;;;;;;;;;;;14.03;100.00;-25461.66;5075829;28;20012;-79
2022/06/09 05:24:22;;;;;;;;;;;;;;;14.06;100.00;-25462.41;5076401;28;19917;-81
2022/06/09 05:26:47;;;;;;;;;;;;;;;13.95;100.00;-25459.47;5068161;28;19940;-79
2022/06/09 05:29:13;;;;;;;;;;;;;;;13.94;100.00;-25459.19;5061296;28;20369;-77
2022/06/09 05:31:39;;;;;;;;;;;;;;;13.93;100.00;-25458.91;5053250;28;19917;-76
2022/06/09 05:34:08;;;;;;;;;;;;;;;13.90;100.00;-25457.88;5069848;28;19916;-77
2022/06/09 05:36:33;;;;;;;;;;;;;;;13.91;100.00;-25458.16;5073667;28;20011;-78
2022/06/09 05:44:52;;;;;;;;;;;;;;;13.92;100.00;-25458.47;5054867;28;19928;-81
2022/06/09 05:47:21;;;;;;;;;;;;;;;13.91;100.00;-25458.31;5059312;28;20284;-78
2022/06/09 05:49:47;;;;;;;;;;;;;;;13.88;100.00;-25457.28;5063398;28;19927;-81
2022/06/09 05:52:14;;;;;;;;;;;;;;;13.79;100.00;-25454.97;5045338;28;19929;-79
2022/06/09 05:54:40;;;;;;;;;;;;;;;13.88;100.00;-25457.44;5046558;28;19921;-81
2022/06/09 05:57:05;;;;;;;;;;;;;;;13.85;100.00;-25456.41;5054727;28;19928;-79
2022/06/09 05:59:30;;;;;;;;;;;;;;;13.82;100.00;-25455.69;5054319;28;19916;-81
2022/06/09 06:01:56;;;;;;;;;;;;;;;13.75;100.00;-25453.66;5053304;28;19974;-82
2022/06/09 06:04:22;;;;;;;;;;;;;;;13.77;100.00;-25454.22;5053641;28;20331;-80
2022/06/09 06:06:47;;;;;;;;;;;;;;;13.77;100.00;-25454.22;5053682;28;19924;-82
2022/06/09 06:09:15;;;;;;;;;;;;;;;13.76;100.00;-25453.94;5053553;28;19920;-82
2022/06/09 06:11:41;;;;;;;;;;;;;;;13.89;100.00;-25457.59;5053143;28;19917;-78
2022/06/09 06:14:11;;;;;;;;;;;;;;;13.89;100.00;-25457.72;5053115;28;19943;-80
2022/06/09 06:16:38;;;;;;;;;;;;;;;13.94;100.00;-25459.19;5053162;28;19964;-86
2022/06/09 06:19:04;;;;;;;;;;;;;;;13.84;100.00;-25456.28;5053815;28;19948;-78
2022/06/09 06:21:30;;;;;;;;;;;;;;;13.97;100.00;-25460.06;5053354;28;19944;-82
2022/06/09 06:23:57;;;;;;;;;;;;;;;14.03;100.00;-25461.66;5053196;28;19917;-78
2022/06/09 06:26:22;;;;;;;;;;;;;;;13.62;100.00;-25450.16;5037054;28;19932;-88
2022/06/09 06:28:48;;;;;;;;;;;;;;;13.73;100.00;-25453.22;5054677;28;19917;-90
2022/06/09 06:31:13;;;;;;;;;;;;;;;13.85;100.00;-25456.56;5053155;28;19921;-85
2022/06/09 06:33:39;;;;;;;;;;;;;;;13.79;100.00;-25454.81;5052511;28;19926;-80
2022/06/09 06:36:04;;;;;;;;;;;;;;;13.93;100.00;-25458.75;5053214;28;19917;-88
2022/06/09 06:38:30;;;;;;;;;;;;;;;13.91;100.00;-25458.31;5055970;28;19999;-85
2022/06/09 06:40:57;;;;;;;;;;;;;;;13.95;100.00;-25459.47;5057261;28;19917;-84
2022/06/09 06:43:23;;;;;;;;;;;;;;;14.14;100.00;-25464.72;5072992;28;19920;-84
2022/06/09 06:45:48;;;;;;;;;;;;;;;14.05;100.00;-25462.25;5058762;28;20395;-86
2022/06/09 06:48:14;;;;;;;;;;;;;;;14.18;100.00;-25465.91;5056502;28;19963;-85
2022/06/09 06:50:40;;;;;;;;;;;;;;;14.22;100.00;-25467.06;5074139;28;20253;-85
2022/06/09 06:53:06;;;;;;;;;;;;;;;14.41;100.00;-25472.31;5056095;28;19916;-85
2022/06/09 06:55:32;;;;;;;;;;;;;;;14.53;100.00;-25475.81;5054857;28;20010;-83
2022/06/09 06:57:57;;;;;;;;;;;;;;;14.59;100.00;-25477.56;5055240;28;20376;-82
2022/06/09 07:00:24;;;;;;;;;;;;;;;14.71;100.00;-25480.91;5054574;28;19920;-82
2022/06/09 07:02:50;;;;;;;;;;;;;;;14.66;100.00;-25479.59;5061573;28;19916;-79
2022/06/09 07:05:16;;;;;;;;;;;;;;;14.86;100.00;-25485.13;5055024;28;19916;-82
2022/06/09 07:07:41;;;;;;;;;;;;;;;14.83;100.00;-25484.25;5054434;28;19924;-81
2022/06/09 07:10:07;;;;;;;;;;;;;;;14.93;100.00;-25487.03;5064474;28;19920;-81
2022/06/09 07:12:33;;;;;;;;;;;;;;;15.16;100.00;-25493.72;5061636;28;19923;-78
2022/06/09 07:14:59;;;;;;;;;;;;;;;15.27;100.00;-25496.78;5034791;28;19917;-78
2022/06/09 07:17:24;;;;;;;;;;;;;;;15.60;100.00;-25506.09;5035132;28;20265;-79
2022/06/09 07:19:50;;;;;;;;;;;;;;;15.73;100.00;-25509.88;5051834;28;19924;-79
2022/06/09 07:22:15;;;;;;;;;;;;;;;15.77;100.00;-25511.03;5055521;28;19922;-77
2022/06/09 07:24:42;;;;;;;;;;;;;;;15.79;100.00;-25511.63;5054030;28;20372;-81
2022/06/09 07:27:07;;;;;;;;;;;;;;;15.82;100.00;-25512.19;5054148;28;19924;-79
2022/06/09 07:29:33;;;;;;;;;;;;;;;15.96;100.00;-25516.25;5054633;28;20383;-78
2022/06/09 07:31:58;;;;;;;;;;;;;;;16.19;100.00;-25522.81;5054580;28;19916;-78
2022/06/09 07:34:24;;;;;;;;;;;;;;;16.42;100.00;-25529.34;5063937;28;19920;-79
2022/06/09 07:36:50;;;;;;;;;;;;;;;16.74;100.00;-25538.34;5074654;28;19924;-82
2022/06/09 07:39:15;;;;;;;;;;;;;;;16.75;100.00;-25538.63;5074534;28;19924;-78
2022/06/09 07:41:40;;;;;;;;;;;;;;;17.06;100.00;-25547.34;5075320;28;19916;-82
2022/06/09 07:44:09;;;;;;;;;;;;;;;16.78;100.00;-25539.34;5064899;28;20333;-79
2022/06/09 07:46:35;;;;;;;;;;;;;;;16.95;100.00;-25544.28;5054618;28;19967;-80
2022/06/09 07:49:01;;;;;;;;;;;;;;;16.99;100.00;-25545.44;5054927;28;19912;-82
2022/06/09 07:51:28;;;;;;;;;;;;;;;17.49;100.00;-25559.38;5055199;28;20372;-81
2022/06/09 07:53:54;;;;;;;;;;;;;;;17.59;100.00;-25562.41;5073640;28;19920;-81
2022/06/09 07:56:19;;;;;;;;;;;;;;;17.55;100.00;-25561.25;5074928;28;19920;-81
2022/06/09 07:58:45;;;;;;;;;;;;;;;17.86;100.00;-25569.94;5074856;28;19916;-81
2022/06/09 08:01:11;;;;;;;;;;;;;;;17.94;100.00;-25572.25;5062657;28;19920;-81
2022/06/09 08:03:40;;;;;;;;;;;;;;;18.48;100.00;-25587.44;5054504;28;19924;-81
2022/06/09 08:06:06;;;;;;;;;;;;;;;18.81;100.00;-25596.72;5053725;28;19926;-79
2022/06/09 08:08:32;;;;;;;;;;;;;;;19.31;100.00;-25610.59;5054868;28;19916;-79
2022/06/09 08:10:58;;;;;;;;;;;;;;;19.49;100.00;-25615.63;5045608;28;19975;-81
2022/06/09 08:13:24;;;;;;;;;;;;;;;19.21;100.00;-25607.84;5033752;28;20429;-82
2022/06/09 08:15:49;;;;;;;;;;;;;;;19.68;100.00;-23963.38;5033281;28;20304;-78
2022/06/09 08:18:14;;;;;;;;;;;;;;;19.62;100.00;-16004.72;5033797;28;19947;-80
2022/06/09 08:20:41;;;;;;;;;;;;;;;20.07;100.00;-6699.75;5033048;28;19916;-81
2022/06/09 08:23:18;;;;;;;;;;;;;;;20.23;100.00;633.84;5033604;28;19917;-81
2022/06/09 08:25:44;;;;;;;;;;;;;;;20.15;100.00;15674.38;5035334;28;19948;-82
2022/06/09 08:28:10;;;;;;;;;;;;;;;19.95;100.00;12320.56;5037471;28;19917;-82
2022/06/09 08:30:36;;;;;;;;;;;;;;;19.69;100.00;20010.78;5036155;28;19923;-80
2022/06/09 08:33:01;;;;;;;;;;;;;;;20.40;100.00;19706.47;5037226;28;19924;-81
2022/06/09 08:35:27;;;;;;;;;;;;;;;20.14;100.00;22713.28;5036536;28;19917;-78
2022/06/09 08:37:53;;;;;;;;;;;;;;;19.88;100.00;36475.78;5036664;28;20323;-79
2022/06/09 08:40:23;;;;;;;;;;;;;;;19.86;100.00;59764.19;5037177;28;20676;-78
2022/06/09 08:43:07;;;;;;;;;;;;;;;20.55;100.00;63567.66;5036534;28;19917;-81
2022/06/09 08:45:38;;;;;;;;;;;;;;;21.04;100.00;105257.09;5052912;28;19996;-77
2022/06/09 08:48:05;;;;;;;;;;;;;;;21.10;100.00;148027.53;5036658;28;19932;-81
2022/06/09 08:50:36;;;;;;;;;;;;;;;21.22;100.00;148057.00;5036705;28;19921;-82
2022/06/09 08:53:23;;;;;;;;;;;;;;;20.50;100.00;147876.28;5036339;28;19917;-77
2022/06/09 08:56:08;;;;;;;;;;;;;;;20.28;100.00;147822.47;5036134;28;19948;-80
2022/06/09 08:58:40;;;;;;;;;;;;;;;20.69;100.00;147923.72;5052553;28;19917;-80
2022/06/09 09:01:05;;;;;;;;;;;;;;;20.36;100.00;147841.69;5036590;28;19921;-79
2022/06/09 09:03:38;;;;;;;;;;;;;;;20.89;100.00;147974.97;5036308;28;19924;-78
2022/06/09 09:06:09;;;;;;;;;;;;;;;20.81;100.00;147954.50;5036225;28;20007;-75
2022/06/09 09:08:36;;;;;;;;;;;;;;;20.61;100.00;147905.72;5036464;28;19920;-80
2022/06/09 09:11:22;;;;;;;;;;;;;;;20.27;100.00;147819.91;5036101;28;19924;-81
2022/06/09 09:13:54;;;;;;;;;;;;;;;20.29;100.00;147825.06;5035790;28;19913;-82
2022/06/09 09:16:33;;;;;;;;;;;;;;;20.22;100.00;147807.09;5035973;28;19969;-81
2022/06/09 09:19:22;;;;;;;;;;;;;;;20.63;100.00;147910.88;5036643;28;19917;-82
2022/06/09 09:21:55;;;;;;;;;;;;;;;20.82;100.00;147955.75;5028647;28;19916;-81
2022/06/09 09:24:24;;;;;;;;;;;;;;;21.26;100.00;148066.00;5036232;28;19916;-81
2022/06/09 09:26:58;;;;;;;;;;;;;;;21.13;100.00;148033.91;5035039;28;20090;-79
2022/06/09 09:29:41;;;;;;;;;;;;;;;21.00;100.00;148000.63;5035844;28;19921;-80
2022/06/09 09:32:10;;;;;;;;;;;;;;;21.74;100.00;148186.56;5035231;28;19916;-78
2022/06/09 09:34:37;;;;;;;;;;;;;;;21.80;100.00;148200.69;5035351;28;19916;-80
2022/06/09 09:37:15;;;;;;;;;;;;;;;21.61;100.00;148153.19;5034805;28;20013;-80
2022/06/09 09:39:42;;;;;;;;;;;;;;;20.61;100.00;147904.47;5036114;28;19917;-78
2022/06/09 09:42:11;;;;;;;;;;;;;;;19.97;100.00;147744.38;5019058;28;22127;-80
2022/06/09 09:44:37;;;;;;;;;;;;;;;19.85;100.00;147714.88;5035779;28;19924;-82
2022/06/09 09:47:03;;;;;;;;;;;;;;;20.29;100.00;147825.06;5035833;28;20062;-82
2022/06/09 09:49:29;;;;;;;;;;;;;;;19.90;100.00;147727.69;5035856;28;20369;-80
2022/06/09 09:51:55;;;;;;;;;;;;;;;20.19;100.00;147799.44;5035810;28;19917;-83
2022/06/09 09:54:28;;;;;;;;;;;;;;;19.12;100.00;147534.31;5035774;28;19923;-81
2022/06/09 09:57:14;;;;;;;;;;;;;;;19.73;100.00;147685.38;5035977;28;19920;-83
2022/06/09 09:59:44;;;;;;;;;;;;;;;20.34;100.00;147837.84;5035453;28;19917;-79
2022/06/09 10:08:35;;;;;;;;;;;;;;;20.01;100.00;147754.56;5053467;28;19924;-77
2022/06/09 10:11:01;;;;;;;;;;;;;;;19.94;100.00;147737.94;5035877;28;19917;-79
2022/06/09 10:13:31;;;;;;;;;;;;;;;20.32;100.00;147831.44;5034904;28;19931;-80
2022/06/09 10:15:56;;;;;;;;;;;;;;;20.14;100.00;147786.63;5042711;28;19939;-79
2022/06/09 10:18:23;;;;;;;;;;;;;;;19.87;100.00;147721.31;5054669;28;19924;-75
2022/06/09 10:20:48;;;;;;;;;;;;;;;19.94;100.00;147736.69;5054356;28;19920;-76
2022/06/09 10:23:16;;;;;;;;;;;;;;;20.23;100.00;147810.94;5055428;28;20571;-78
2022/06/09 10:25:44;;;;;;;;;;;;;;;20.08;100.00;147773.78;5062785;28;19956;-75
2022/06/09 10:28:30;;;;;;;;;;;;;;;20.75;100.00;147940.38;5053217;28;20015;-77
2022/06/09 10:31:02;;;;;;;;;;;;;;;20.58;100.00;147898.03;5038638;28;20327;-77
2022/06/09 10:33:38;;;;;;;;;;;;;;;20.36;100.00;147842.97;5054821;28;19958;-77
2022/06/09 10:36:26;;;;;;;;;;;;;;;20.58;100.00;147898.03;5055487;28;19912;-77
2022/06/09 10:38:59;;;;;;;;;;;;;;;20.73;100.00;147934.00;5008747;28;20554;-77
2022/06/09 10:41:37;;;;;;;;;;;;;;;21.04;100.00;148010.91;5055519;28;19951;-82
2022/06/09 10:44:14;;;;;;;;;;;;;;;21.20;100.00;148051.88;5054895;28;19920;-82
2022/06/09 10:55:14;;;;;;;;;;;;;;;21.23;100.00;148059.56;5055489;28;19958;-79
2022/06/09 10:55:28;;;;;;;;;;;;;;;21.69;100.00;148173.75;5072517;28;20009;-82
2022/06/09 10:58:00;;;;;;;;;;;;;;;21.74;100.00;148186.56;5054333;28;19927;-78
2022/06/09 11:00:34;;;;;;;;;;;;;;;21.96;100.00;148241.69;5054297;28;20046;-73
2022/06/09 11:03:02;;;;;;;;;;;;;;;21.57;100.00;148142.97;5055910;28;19920;-79
2022/06/09 11:05:31;;;;;;;;;;;;;;;21.24;100.00;148062.16;5054437;28;19942;-82
2022/06/09 11:08:13;;;;;;;;;;;;;;;21.24;100.00;148060.84;5053591;28;19924;-81
2022/06/09 11:10:44;;;;;;;;;;;;;;;21.45;100.00;148113.41;5056630;28;19920;-79
2022/06/09 11:13:24;;;;;;;;;;;;;;;21.32;100.00;148081.38;5054325;28;19925;-81
2022/06/09 11:15:50;;;;;;;;;;;;;;;21.72;100.00;148181.44;5053588;28;20495;-78
2022/06/09 11:18:24;;;;;;;;;;;;;;;21.52;100.00;148131.44;5055736;28;20027;-82
2022/06/09 11:21:06;;;;;;;;;;;;;;;20.79;100.00;147950.66;5062695;28;19960;-81
2022/06/09 11:23:34;;;;;;;;;;;;;;;21.00;100.00;148001.91;5054921;28;20257;-76
2022/06/09 11:26:12;;;;;;;;;;;;;;;21.15;100.00;148039.09;5036970;28;19924;-80
2022/06/09 11:28:40;;;;;;;;;;;;;;;21.32;100.00;148081.38;5066361;28;19932;-82
2022/06/09 11:31:12;;;;;;;;;;;;;;;21.22;100.00;148055.72;5066068;28;19924;-81
2022/06/09 11:33:41;;;;;;;;;;;;;;;21.06;100.00;148017.28;5053744;28;19928;-80
2022/06/09 11:36:19;;;;;;;;;;;;;;;20.47;100.00;147869.88;5053117;28;20046;-78
2022/06/09 11:38:51;;;;;;;;;;;;;;;20.20;100.00;147802.00;5052980;28;19921;-79
2022/06/09 11:41:37;;;;;;;;;;;;;;;19.86;100.00;147718.72;5053849;28;19923;-81
2022/06/09 11:44:03;;;;;;;;;;;;;;;20.25;100.00;147814.78;5053509;28;19935;-75
2022/06/09 11:46:30;;;;;;;;;;;;;;;20.37;100.00;147845.53;5055008;28;19912;-73
2022/06/09 11:48:58;;;;;;;;;;;;;;;20.63;100.00;147909.56;5052504;28;20372;-75
2022/06/09 11:51:25;;;;;;;;;;;;;;;20.69;100.00;147925.00;5061818;28;20019;-74
2022/06/09 11:53:53;;;;;;;;;;;;;;;20.79;100.00;147949.38;5054480;28;20377;-74
2022/06/09 11:56:33;;;;;;;;;;;;;;;20.59;100.00;147899.34;5053733;28;20053;-78
2022/06/09 11:58:58;;;;;;;;;;;;;;;20.50;100.00;147876.28;5052747;28;19928;-77
2022/06/09 12:01:39;;;;;;;;;;;;;;;20.45;100.00;147864.75;5056090;28;19925;-75
2022/06/09 12:04:07;;;;;;;;;;;;;;;20.78;100.00;147948.06;5057311;28;19939;-81
2022/06/09 12:06:45;;;;;;;;;;;;;;;20.76;100.00;147942.94;5057809;28;20411;-76
2022/06/09 12:09:18;;;;;;;;;;;;;;;20.65;100.00;147913.47;5069357;28;19917;-76
2022/06/09 12:11:52;;;;;;;;;;;;;;;20.66;100.00;147917.31;5061476;28;19916;-77
2022/06/09 12:14:23;;;;;;;;;;;;;;;20.16;100.00;147793.00;5062329;28;19920;-75
2022/06/09 12:17:07;;;;;;;;;;;;;;;20.16;100.00;147793.00;5073208;28;20003;-75
2022/06/09 12:19:49;;;;;;;;;;;;;;;20.16;100.00;147791.72;5059593;28;20384;-74
2022/06/09 12:22:34;;;;;;;;;;;;;;;20.52;100.00;147882.66;5058234;28;19920;-77
2022/06/09 12:25:14;;;;;;;;;;;;;;;20.30;100.00;147827.59;5057680;28;20011;-80
2022/06/09 12:27:42;;;;;;;;;;;;;;;20.69;100.00;147925.00;5057840;28;19950;-81
2022/06/09 12:30:28;;;;;;;;;;;;;;;20.54;100.00;147887.81;5057706;28;19920;-76
2022/06/09 12:33:11;;;;;;;;;;;;;;;20.37;100.00;147845.53;5039943;28;19924;-77
2022/06/09 12:35:50;;;;;;;;;;;;;;;20.36;100.00;147841.69;5057396;28;19920;-79
2022/06/09 12:38:16;;;;;;;;;;;;;;;20.28;100.00;147822.47;5057521;28;19950;-81
2022/06/09 12:40:44;;;;;;;;;;;;;;;20.01;100.00;147754.56;5057873;28;19974;-81
2022/06/09 12:43:28;;;;;;;;;;;;;;;20.14;100.00;147787.91;5057333;28;20334;-81
2022/06/09 12:46:12;;;;;;;;;;;;;;;20.09;100.00;147775.09;5057071;28;20018;-76
2022/06/09 12:48:37;;;;;;;;;;;;;;;20.59;100.00;147899.34;5075060;28;19924;-79
2022/06/09 12:51:04;;;;;;;;;;;;;;;20.86;100.00;147966.03;5057767;28;19916;-81
2022/06/09 12:53:31;;;;;;;;;;;;;;;21.36;100.00;148090.34;5057748;28;20365;-78
2022/06/09 12:55:59;;;;;;;;;;;;;;;21.21;100.00;148053.16;5058220;28;19966;-80